createdAt,value
2023-03-19T00:00:09.932Z,100324.17
2023-03-19T00:02:21.566Z,100327.50
2023-03-19T00:04:13.376Z,100328.55
2023-03-19T00:06:04.989Z,100331.02
2023-03-19T00:07:57.088Z,100335.69
2023-03-19T00:09:49.028Z,100333.47
2023-03-19T00:11:40.903Z,100334.14
2023-03-19T00:13:32.777Z,100333.67
2023-03-19T00:15:24.205Z,100335.58
2023-03-19T00:17:16.281Z,100337.88
2023-03-19T00:19:08.564Z,100338.36
2023-03-19T00:21:00.139Z,100341.36
2023-03-19T00:22:51.664Z,100338.23
2023-03-19T00:24:43.625Z,100336.04
2023-03-19T00:26:36.057Z,100336.46
2023-03-19T00:28:28.098Z,100335.38
2023-03-19T00:30:20.752Z,100340.00
2023-03-19T00:32:12.621Z,100343.55
2023-03-19T00:34:04.467Z,100342.87
2023-03-19T00:35:56.007Z,100340.88
2023-03-19T00:37:47.436Z,100341.56
2023-03-19T00:39:39.164Z,100337.88
2023-03-19T00:41:30.839Z,100336.45
2023-03-19T00:43:23.495Z,100338.73
2023-03-19T00:45:14.940Z,100333.68
2023-03-19T00:47:07.472Z,100330.36
2023-03-19T00:48:59.124Z,100329.60
2023-03-19T00:50:51.732Z,100326.90
2023-03-19T00:52:43.070Z,100324.98
2023-03-19T00:54:34.869Z,100322.06
2023-03-19T00:56:26.306Z,100321.06
2023-03-19T00:58:18.292Z,100316.58
2023-03-19T01:00:11.993Z,100317.20
2023-03-19T01:02:04.451Z,100316.01
2023-03-19T01:03:56.203Z,100312.71
2023-03-19T01:07:41.266Z,100305.59
2023-03-19T01:09:32.945Z,100298.55
2023-03-19T01:11:24.859Z,100303.79
2023-03-19T01:13:16.654Z,100300.20
2023-03-19T01:15:09.944Z,100304.94
2023-03-19T01:17:01.737Z,100303.15
2023-03-19T01:18:53.762Z,100303.30
2023-03-19T01:20:45.688Z,100306.86
2023-03-19T01:22:37.914Z,100306.46
2023-03-19T01:24:31.448Z,100307.32
2023-03-19T01:26:23.960Z,100305.97
2023-03-19T01:28:15.398Z,100301.58
2023-03-19T01:30:07.946Z,100306.73
2023-03-19T01:31:59.551Z,100305.66
2023-03-19T01:33:51.795Z,100306.23
2023-03-19T01:35:47.753Z,100307.52
2023-03-19T01:37:39.741Z,100304.30
2023-03-19T01:39:31.290Z,100304.83
2023-03-19T01:41:23.906Z,100305.95
2023-03-19T01:43:22.187Z,100301.70
2023-03-19T01:45:36.538Z,100305.60
2023-03-19T01:47:28.250Z,100305.52
2023-03-19T01:49:21.612Z,100310.19
2023-03-19T01:51:16.281Z,100315.81
2023-03-19T01:53:10.223Z,100312.27
2023-03-19T01:55:05.392Z,100311.41
2023-03-19T01:57:03.536Z,100315.52
2023-03-19T01:58:57.862Z,100315.35
2023-03-19T02:00:49.558Z,100315.27
2023-03-19T02:02:41.858Z,100312.41
2023-03-19T02:04:35.852Z,100312.97
2023-03-19T02:06:30.341Z,100312.67
2023-03-19T02:08:23.099Z,100313.66
2023-03-19T02:10:17.202Z,100317.27
2023-03-19T02:12:09.449Z,100318.82
2023-03-19T02:14:01.373Z,100318.08
2023-03-19T02:15:54.072Z,100319.55
2023-03-19T02:17:46.612Z,100322.48
2023-03-19T02:19:50.253Z,100324.23
2023-03-19T02:21:41.790Z,100330.86
2023-03-19T02:23:42.491Z,100325.00
2023-03-19T02:25:44.909Z,100321.41
2023-03-19T02:27:37.124Z,100323.17
2023-03-19T02:29:28.615Z,100321.35
2023-03-19T02:31:21.024Z,100321.15
2023-03-19T02:33:20.190Z,100321.08
2023-03-19T02:35:12.052Z,100322.86
2023-03-19T02:37:09.039Z,100323.49
2023-03-19T02:39:03.811Z,100317.36
2023-03-19T02:41:01.566Z,100321.99
2023-03-19T02:42:52.874Z,100323.06
2023-03-19T02:44:44.835Z,100324.37
2023-03-19T02:46:36.831Z,100327.61
2023-03-19T02:48:28.552Z,100320.17
2023-03-19T02:50:20.102Z,100321.48
2023-03-19T02:52:12.306Z,100326.11
2023-03-19T02:54:04.220Z,100323.09
2023-03-19T02:55:55.831Z,100323.77
2023-03-19T02:57:47.779Z,100324.60
2023-03-19T02:59:39.419Z,100323.13
2023-03-19T03:01:31.277Z,100320.63
2023-03-19T03:03:22.815Z,100321.96
2023-03-19T03:05:14.695Z,100321.29
2023-03-19T03:07:07.599Z,100322.05
2023-03-19T03:08:59.692Z,100322.66
2023-03-19T03:10:51.072Z,100325.75
2023-03-19T03:12:43.224Z,100324.56
2023-03-19T03:14:35.328Z,100321.91
2023-03-19T03:16:27.351Z,100320.55
2023-03-19T03:18:19.444Z,100322.27
2023-03-19T03:20:13.517Z,100323.16
2023-03-19T03:22:05.746Z,100326.66
2023-03-19T03:23:57.747Z,100327.55
2023-03-19T03:25:51.513Z,100329.50
2023-03-19T03:27:42.765Z,100327.95
2023-03-19T03:29:34.615Z,100332.58
2023-03-19T03:31:27.259Z,100335.35
2023-03-19T03:33:19.068Z,100336.91
2023-03-19T03:35:11.218Z,100337.65
2023-03-19T03:37:02.989Z,100332.33
2023-03-19T03:38:54.840Z,100333.77
2023-03-19T03:40:51.536Z,100330.83
2023-03-19T03:42:44.173Z,100330.77
2023-03-19T03:44:36.288Z,100335.51
2023-03-19T03:46:28.128Z,100333.67
2023-03-19T03:48:19.629Z,100334.06
2023-03-19T03:50:11.772Z,100330.61
2023-03-19T03:52:03.283Z,100333.17
2023-03-19T03:53:55.090Z,100331.02
2023-03-19T03:55:46.704Z,100330.76
2023-03-19T03:57:38.020Z,100334.46
2023-03-19T03:59:29.901Z,100332.14
2023-03-19T04:01:21.491Z,100337.61
2023-03-19T04:03:13.687Z,100337.58
2023-03-19T04:05:06.795Z,100341.52
2023-03-19T04:06:58.487Z,100334.30
2023-03-19T04:08:51.120Z,100340.50
2023-03-19T04:10:42.859Z,100329.49
2023-03-19T04:12:36.699Z,100338.37
2023-03-19T04:14:28.309Z,100336.48
2023-03-19T04:16:19.505Z,100330.89
2023-03-19T04:18:11.350Z,100326.33
2023-03-19T04:20:04.717Z,100321.83
2023-03-19T04:21:56.058Z,100321.63
2023-03-19T04:23:47.304Z,100326.52
2023-03-19T04:25:41.725Z,100330.21
2023-03-19T04:27:33.153Z,100331.10
2023-03-19T04:29:24.812Z,100331.45
2023-03-19T04:31:16.545Z,100329.40
2023-03-19T04:33:08.433Z,100334.94
2023-03-19T04:35:00.909Z,100329.39
2023-03-19T04:36:53.573Z,100327.45
2023-03-19T04:38:44.851Z,100327.09
2023-03-19T04:40:36.669Z,100324.73
2023-03-19T04:42:28.534Z,100332.49
2023-03-19T04:44:20.202Z,100328.56
2023-03-19T04:46:12.039Z,100326.14
2023-03-19T04:48:03.946Z,100323.03
2023-03-19T04:49:55.517Z,100323.34
2023-03-19T04:51:46.893Z,100316.38
2023-03-19T04:53:40.036Z,100320.58
2023-03-19T04:55:32.596Z,100322.27
2023-03-19T04:57:24.560Z,100327.29
2023-03-19T04:59:16.182Z,100322.98
2023-03-19T05:01:07.687Z,100325.35
2023-03-19T05:02:59.108Z,100329.68
2023-03-19T05:04:51.022Z,100326.81
2023-03-19T05:06:42.880Z,100329.33
2023-03-19T05:08:35.197Z,100330.36
2023-03-19T05:10:26.984Z,100325.76
2023-03-19T05:12:18.120Z,100329.00
2023-03-19T05:14:09.315Z,100331.02
2023-03-19T05:16:00.731Z,100327.18
2023-03-19T05:17:52.204Z,100328.19
2023-03-19T05:19:44.676Z,100330.42
2023-03-19T05:21:37.584Z,100333.05
2023-03-19T05:23:29.074Z,100335.86
2023-03-19T05:25:20.808Z,100341.33
2023-03-19T05:27:12.908Z,100339.80
2023-03-19T05:29:05.125Z,100340.30
2023-03-19T05:30:56.888Z,100341.39
2023-03-19T05:32:50.043Z,100342.76
2023-03-19T05:34:41.838Z,100341.20
2023-03-19T05:36:34.406Z,100340.26
2023-03-19T05:38:26.608Z,100341.17
2023-03-19T05:40:18.508Z,100341.14
2023-03-19T05:42:10.476Z,100341.77
2023-03-19T05:44:02.634Z,100340.91
2023-03-19T05:45:54.312Z,100345.77
2023-03-19T05:47:50.186Z,100345.50
2023-03-19T05:49:41.936Z,100351.55
2023-03-19T05:51:33.556Z,100353.70
2023-03-19T05:53:25.163Z,100356.14
2023-03-19T05:55:17.487Z,100348.43
2023-03-19T05:57:09.179Z,100351.20
2023-03-19T05:59:00.844Z,100351.08
2023-03-19T06:00:56.516Z,100351.30
2023-03-19T06:02:48.477Z,100355.34
2023-03-19T06:04:40.625Z,100356.58
2023-03-19T06:06:32.154Z,100359.52
2023-03-19T06:08:23.990Z,100357.20
2023-03-19T06:10:16.152Z,100357.98
2023-03-19T06:12:08.438Z,100355.94
2023-03-19T06:14:00.122Z,100357.91
2023-03-19T06:15:52.218Z,100355.77
2023-03-19T06:17:44.702Z,100351.70
2023-03-19T06:19:36.709Z,100351.73
2023-03-19T06:21:29.866Z,100353.50
2023-03-19T06:23:21.446Z,100351.50
2023-03-19T06:25:13.031Z,100349.86
2023-03-19T06:27:04.506Z,100356.78
2023-03-19T06:28:56.124Z,100358.31
2023-03-19T06:30:47.830Z,100359.92
2023-03-19T06:32:40.051Z,100357.88
2023-03-19T06:34:31.771Z,100352.98
2023-03-19T06:36:23.382Z,100352.91
2023-03-19T06:38:15.381Z,100357.36
2023-03-19T06:40:07.589Z,100357.39
2023-03-19T06:41:59.444Z,100358.14
2023-03-19T06:43:51.554Z,100363.08
2023-03-19T06:45:43.414Z,100359.56
2023-03-19T06:47:35.610Z,100363.98
2023-03-19T06:49:27.346Z,100368.25
2023-03-19T06:51:19.204Z,100373.31
2023-03-19T06:53:11.247Z,100377.11
2023-03-19T06:55:03.268Z,100377.33
2023-03-19T06:56:55.146Z,100376.55
2023-03-19T06:58:46.782Z,100377.80
2023-03-19T07:00:38.329Z,100377.22
2023-03-19T07:02:30.808Z,100378.23
2023-03-19T07:04:22.739Z,100379.59
2023-03-19T07:06:14.501Z,100376.64
2023-03-19T07:08:11.832Z,100381.53
2023-03-19T07:10:04.144Z,100378.06
2023-03-19T07:11:55.986Z,100372.42
2023-03-19T07:13:47.719Z,100378.10
2023-03-19T07:15:39.649Z,100381.95
2023-03-19T07:17:31.185Z,100385.82
2023-03-19T07:19:23.214Z,100390.35
2023-03-19T07:21:14.889Z,100390.43
2023-03-19T07:23:06.934Z,100386.54
2023-03-19T07:24:58.477Z,100382.78
2023-03-19T07:26:50.284Z,100374.56
2023-03-19T07:28:41.993Z,100374.20
2023-03-19T07:30:33.580Z,100373.98
2023-03-19T07:32:25.781Z,100378.02
2023-03-19T07:34:17.612Z,100387.65
2023-03-19T07:36:09.695Z,100395.48
2023-03-19T07:38:02.694Z,100401.85
2023-03-19T07:39:54.354Z,100408.63
2023-03-19T07:41:48.705Z,100406.56
2023-03-19T07:43:40.511Z,100401.77
2023-03-19T07:45:32.373Z,100394.38
2023-03-19T07:47:29.373Z,100387.48
2023-03-19T07:49:22.295Z,100390.29
2023-03-19T07:51:13.853Z,100395.28
2023-03-19T07:53:05.720Z,100402.02
2023-03-19T07:54:57.769Z,100403.02
2023-03-19T07:56:49.415Z,100404.84
2023-03-19T07:58:41.310Z,100402.73
2023-03-19T08:00:33.593Z,100391.89
2023-03-19T08:02:25.882Z,100391.54
2023-03-19T08:04:18.050Z,100389.73
2023-03-19T08:06:10.065Z,100392.75
2023-03-19T08:08:02.119Z,100388.02
2023-03-19T08:09:54.042Z,100390.43
2023-03-19T08:11:45.803Z,100389.77
2023-03-19T08:13:37.440Z,100394.27
2023-03-19T08:15:29.560Z,100396.67
2023-03-19T08:17:22.095Z,100395.20
2023-03-19T08:19:13.697Z,100397.43
2023-03-19T08:21:05.711Z,100392.42
2023-03-19T08:22:58.265Z,100392.01
2023-03-19T08:24:50.107Z,100392.06
2023-03-19T08:26:41.491Z,100394.32
2023-03-19T08:28:33.452Z,100396.77
2023-03-19T08:30:25.113Z,100400.41
2023-03-19T08:32:17.394Z,100404.90
2023-03-19T08:34:10.603Z,100401.21
2023-03-19T08:36:13.438Z,100396.09
2023-03-19T08:38:05.078Z,100395.15
2023-03-19T08:39:57.011Z,100392.98
2023-03-19T08:41:48.930Z,100394.02
2023-03-19T08:43:40.990Z,100388.20
2023-03-19T08:45:32.986Z,100386.77
2023-03-19T08:47:25.031Z,100381.38
2023-03-19T08:49:16.768Z,100380.52
2023-03-19T08:51:09.927Z,100372.32
2023-03-19T08:53:02.075Z,100379.89
2023-03-19T08:54:53.691Z,100386.17
2023-03-19T08:56:45.826Z,100385.67
2023-03-19T08:58:37.569Z,100381.71
2023-03-19T09:00:29.277Z,100373.94
2023-03-19T09:02:20.902Z,100374.04
2023-03-19T09:04:13.138Z,100377.85
2023-03-19T09:06:06.551Z,100385.88
2023-03-19T09:07:58.320Z,100391.64
2023-03-19T09:09:50.838Z,100386.10
2023-03-19T09:11:42.448Z,100385.64
2023-03-19T09:13:34.549Z,100386.67
2023-03-19T09:15:26.963Z,100382.66
2023-03-19T09:17:18.324Z,100375.83
2023-03-19T09:19:10.166Z,100375.98
2023-03-19T09:21:02.763Z,100372.23
2023-03-19T09:22:54.052Z,100371.10
2023-03-19T09:24:45.499Z,100365.70
2023-03-19T09:26:37.592Z,100362.73
2023-03-19T09:28:28.900Z,100360.59
2023-03-19T09:30:21.932Z,100359.49
2023-03-19T09:32:13.624Z,100365.88
2023-03-19T09:34:07.128Z,100372.45
2023-03-19T09:35:59.133Z,100378.08
2023-03-19T09:37:51.966Z,100377.46
2023-03-19T09:39:43.889Z,100380.19
2023-03-19T09:41:45.019Z,100380.33
2023-03-19T09:43:49.578Z,100374.64
2023-03-19T09:45:41.476Z,100362.89
2023-03-19T09:47:35.465Z,100356.20
2023-03-19T09:49:33.284Z,100352.63
2023-03-19T09:51:32.064Z,100352.64
2023-03-19T09:53:41.580Z,100347.66
2023-03-19T09:55:43.693Z,100356.16
2023-03-19T09:57:35.997Z,100355.75
2023-03-19T09:59:28.326Z,100353.69
2023-03-19T10:01:26.413Z,100356.08
2023-03-19T10:03:24.278Z,100354.23
2023-03-19T10:05:18.857Z,100352.58
2023-03-19T10:07:32.668Z,100348.31
2023-03-19T10:09:27.518Z,100343.14
2023-03-19T10:11:43.202Z,100343.80
2023-03-19T10:14:03.514Z,100341.83
2023-03-19T10:15:55.544Z,100335.83
2023-03-19T10:17:51.563Z,100334.33
2023-03-19T10:19:46.490Z,100331.88
2023-03-19T10:21:45.018Z,100326.06
2023-03-19T10:23:45.797Z,100322.27
2023-03-19T10:25:41.473Z,100322.75
2023-03-19T10:27:33.734Z,100334.14
2023-03-19T10:29:26.980Z,100339.67
2023-03-19T10:31:42.975Z,100342.14
2023-03-19T10:33:47.883Z,100333.27
2023-03-19T10:35:58.792Z,100333.72
2023-03-19T10:37:51.074Z,100332.35
2023-03-19T10:39:44.677Z,100330.98
2023-03-19T10:42:22.828Z,100327.09
2023-03-19T10:44:37.584Z,100321.73
2023-03-19T10:46:37.698Z,100319.25
2023-03-19T10:48:30.856Z,100320.08
2023-03-19T10:50:48.410Z,100313.37
2023-03-19T10:52:40.428Z,100310.96
2023-03-19T10:54:31.916Z,100307.19
2023-03-19T10:56:25.905Z,100306.27
2023-03-19T10:58:20.667Z,100308.42
2023-03-19T11:00:18.401Z,100309.61
2023-03-19T11:02:27.392Z,100311.91
2023-03-19T11:04:23.309Z,100306.63
2023-03-19T11:06:50.528Z,100302.37
2023-03-19T11:08:42.119Z,100299.77
2023-03-19T11:10:35.427Z,100301.86
2023-03-19T11:12:34.078Z,100301.42
2023-03-19T11:14:26.414Z,100297.88
2023-03-19T11:16:18.534Z,100296.19
2023-03-19T11:18:24.229Z,100293.15
2023-03-19T11:20:15.952Z,100299.81
2023-03-19T11:22:07.474Z,100294.73
2023-03-19T11:24:03.268Z,100298.78
2023-03-19T11:25:59.526Z,100296.56
2023-03-19T11:28:13.107Z,100294.02
2023-03-19T11:30:14.469Z,100290.84
2023-03-19T11:32:20.450Z,100289.48
2023-03-19T11:34:28.140Z,100288.80
2023-03-19T11:36:33.897Z,100293.32
2023-03-19T11:38:41.037Z,100290.34
2023-03-19T11:40:50.299Z,100288.55
2023-03-19T11:43:03.989Z,100278.48
2023-03-19T11:45:40.781Z,100275.67
2023-03-19T11:47:40.829Z,100271.88
2023-03-19T11:49:42.773Z,100269.41
2023-03-19T11:52:00.871Z,100267.27
2023-03-19T11:53:58.468Z,100267.92
2023-03-19T11:56:02.177Z,100268.05
2023-03-19T11:57:57.781Z,100267.04
2023-03-19T11:59:51.837Z,100262.05
2023-03-19T12:01:49.691Z,100259.86
2023-03-19T12:03:59.883Z,100259.77
2023-03-19T12:05:54.436Z,100253.38
2023-03-19T12:08:04.613Z,100259.48
2023-03-19T12:10:21.206Z,100257.55
2023-03-19T12:12:26.832Z,100258.52
2023-03-19T12:14:51.710Z,100261.48
2023-03-19T12:16:55.956Z,100262.52
2023-03-19T12:19:13.478Z,100267.32
2023-03-19T12:21:17.489Z,100267.11
2023-03-19T12:23:37.754Z,100265.55
2023-03-19T12:26:14.522Z,100267.41
2023-03-19T12:28:19.158Z,100271.19
2023-03-19T12:30:16.920Z,100273.58
2023-03-19T12:32:22.905Z,100267.94
2023-03-19T12:34:17.863Z,100262.61
2023-03-19T12:36:13.396Z,100263.23
2023-03-19T12:38:17.985Z,100256.84
2023-03-19T12:40:36.992Z,100254.86
2023-03-19T12:42:31.634Z,100252.63
2023-03-19T12:44:28.347Z,100252.41
2023-03-19T12:46:32.208Z,100249.77
2023-03-19T12:48:29.104Z,100248.98
2023-03-19T12:50:21.775Z,100242.76
2023-03-19T12:52:23.880Z,100241.01
2023-03-19T12:54:49.517Z,100244.37
2023-03-19T12:57:07.243Z,100243.32
2023-03-19T12:59:09.162Z,100242.89
2023-03-19T13:01:24.954Z,100244.50
2023-03-19T13:03:34.518Z,100243.27
2023-03-19T13:05:34.518Z,100239.38
2023-03-19T13:07:45.839Z,100234.43
2023-03-19T13:09:48.776Z,100234.04
2023-03-19T13:11:50.893Z,100236.09
2023-03-19T13:14:17.982Z,100238.92
2023-03-19T13:16:39.120Z,100241.08
2023-03-19T13:18:42.041Z,100237.95
2023-03-19T13:20:57.156Z,100242.33
2023-03-19T13:23:02.097Z,100238.71
2023-03-19T13:24:54.355Z,100235.96
2023-03-19T13:26:47.259Z,100240.77
2023-03-19T13:29:03.050Z,100239.98
2023-03-19T13:31:06.853Z,100233.56
2023-03-19T13:33:06.298Z,100232.13
2023-03-19T13:35:34.897Z,100232.54
2023-03-19T13:37:26.972Z,100228.41
2023-03-19T13:39:21.173Z,100228.86
2023-03-19T13:41:39.382Z,100232.02
2023-03-19T13:43:30.658Z,100233.95
2023-03-19T13:45:35.984Z,100234.29
2023-03-19T13:47:32.269Z,100233.29
2023-03-19T13:49:27.443Z,100233.73
2023-03-19T13:51:25.817Z,100232.36
2023-03-19T13:53:37.955Z,100230.36
2023-03-19T13:55:33.235Z,100230.91
2023-03-19T13:57:36.052Z,100226.00
2023-03-19T13:59:30.239Z,100222.79
2023-03-19T14:01:25.612Z,100226.18
2023-03-19T14:03:23.777Z,100226.70
2023-03-19T14:05:18.655Z,100222.55
2023-03-19T14:07:17.399Z,100219.39
2023-03-19T14:09:31.491Z,100222.34
2023-03-19T14:11:31.536Z,100219.55
2023-03-19T14:13:44.028Z,100217.86
2023-03-19T14:15:39.366Z,100219.05
2023-03-19T14:17:45.567Z,100216.92
2023-03-19T14:19:41.372Z,100218.33
2023-03-19T14:21:46.753Z,100213.71
2023-03-19T14:23:44.168Z,100215.98
2023-03-19T14:26:01.496Z,100214.40
2023-03-19T14:28:01.052Z,100219.02
2023-03-19T14:29:54.013Z,100214.95
2023-03-19T14:31:50.933Z,100214.75
2023-03-19T14:33:46.147Z,100217.59
2023-03-19T14:35:41.872Z,100218.06
2023-03-19T14:37:36.748Z,100216.27
2023-03-19T14:39:41.182Z,100219.34
2023-03-19T14:41:34.966Z,100212.02
2023-03-19T14:43:54.799Z,100211.48
2023-03-19T14:46:04.039Z,100211.51
2023-03-19T14:48:06.352Z,100206.55
2023-03-19T14:50:13.163Z,100210.89
2023-03-19T14:52:12.626Z,100203.52
2023-03-19T14:54:42.785Z,100208.97
2023-03-19T14:56:35.911Z,100206.44
2023-03-19T14:58:27.472Z,100208.15
2023-03-19T15:00:20.655Z,100210.52
2023-03-19T15:02:30.567Z,100206.52
2023-03-19T15:04:24.582Z,100210.41
2023-03-19T15:06:16.013Z,100214.27
2023-03-19T15:08:12.642Z,100208.63
2023-03-19T15:10:06.743Z,100214.57
2023-03-19T15:12:14.509Z,100214.73
2023-03-19T15:14:31.196Z,100215.25
2023-03-19T15:16:37.855Z,100215.05
2023-03-19T15:18:29.720Z,100214.23
2023-03-19T15:20:22.673Z,100213.95
2023-03-19T15:22:15.974Z,100211.63
2023-03-19T15:24:14.378Z,100212.47
2023-03-19T15:26:08.790Z,100209.94
2023-03-19T15:28:09.293Z,100214.11
2023-03-19T15:30:12.885Z,100213.30
2023-03-19T15:32:10.301Z,100212.09
2023-03-19T15:34:02.551Z,100212.80
2023-03-19T15:36:00.649Z,100214.78
2023-03-19T15:37:54.329Z,100214.60
2023-03-19T15:39:50.554Z,100210.30
2023-03-19T15:41:45.729Z,100216.16
2023-03-19T15:43:39.789Z,100218.42
2023-03-19T15:45:33.981Z,100216.30
2023-03-19T15:47:27.733Z,100216.77
2023-03-19T15:49:24.631Z,100217.28
2023-03-19T15:51:17.524Z,100216.90
2023-03-19T15:53:22.106Z,100221.05
2023-03-19T15:55:14.839Z,100223.17
2023-03-19T15:57:07.751Z,100224.24
2023-03-19T15:59:00.286Z,100227.91
2023-03-19T16:00:54.080Z,100229.08
2023-03-19T16:02:48.261Z,100228.23
2023-03-19T16:05:06.742Z,100234.83
2023-03-19T16:06:52.407Z,100236.79
2023-03-19T16:08:49.290Z,100235.66
2023-03-19T16:10:42.566Z,100235.66
2023-03-19T16:12:41.296Z,100237.70
2023-03-19T16:14:39.712Z,100234.38
2023-03-19T16:16:32.976Z,100232.61
2023-03-19T16:18:25.468Z,100237.67
2023-03-19T16:20:17.204Z,100237.45
2023-03-19T16:22:17.540Z,100237.40
2023-03-19T16:24:18.680Z,100238.33
2023-03-19T16:26:16.957Z,100237.36
2023-03-19T16:28:14.798Z,100240.84
2023-03-19T16:30:26.494Z,100239.34
2023-03-19T16:32:21.569Z,100238.83
2023-03-19T16:34:33.856Z,100238.59
2023-03-19T16:36:29.202Z,100236.44
2023-03-19T16:38:25.043Z,100241.85
2023-03-19T16:40:23.643Z,100240.73
2023-03-19T16:42:26.699Z,100240.68
2023-03-19T16:44:19.324Z,100244.30
2023-03-19T16:46:12.894Z,100243.54
2023-03-19T16:48:04.835Z,100246.17
2023-03-19T16:49:56.522Z,100247.13
2023-03-19T16:51:48.330Z,100245.77
2023-03-19T16:53:40.123Z,100243.82
2023-03-19T16:55:35.210Z,100247.52
2023-03-19T16:57:27.253Z,100249.29
2023-03-19T16:59:26.682Z,100249.05
2023-03-19T17:01:21.821Z,100253.32
2023-03-19T17:03:16.077Z,100254.20
2023-03-19T17:05:14.987Z,100250.36
2023-03-19T17:07:07.084Z,100257.36
2023-03-19T17:08:58.664Z,100259.80
2023-03-19T17:10:51.748Z,100264.48
2023-03-19T17:12:45.851Z,100261.58
2023-03-19T17:14:37.647Z,100264.33
2023-03-19T17:16:29.425Z,100262.99
2023-03-19T17:18:23.872Z,100266.27
2023-03-19T17:20:18.813Z,100267.46
2023-03-19T17:22:11.456Z,100262.85
2023-03-19T17:24:23.801Z,100265.05
2023-03-19T17:26:26.845Z,100262.05
2023-03-19T17:28:18.690Z,100269.29
2023-03-19T17:30:11.129Z,100270.70
2023-03-19T17:32:04.405Z,100271.25
2023-03-19T17:34:04.343Z,100271.14
2023-03-19T17:35:58.141Z,100275.95
2023-03-19T17:37:52.549Z,100271.08
2023-03-19T17:39:46.349Z,100275.33
2023-03-19T17:41:37.893Z,100277.20
2023-03-19T17:43:29.696Z,100277.98
2023-03-19T17:45:25.601Z,100283.01
2023-03-19T17:47:18.700Z,100290.38
2023-03-19T17:49:29.126Z,100292.32
2023-03-19T17:51:22.764Z,100291.66
2023-03-19T17:53:14.673Z,100286.98
2023-03-19T17:55:16.232Z,100292.11
2023-03-19T17:57:11.619Z,100282.56
2023-03-19T17:59:03.254Z,100284.43
2023-03-19T18:00:54.918Z,100281.98
2023-03-19T18:02:48.224Z,100285.73
2023-03-19T18:04:39.703Z,100283.23
2023-03-19T18:06:37.084Z,100285.48
2023-03-19T18:08:28.596Z,100286.91
2023-03-19T18:10:23.003Z,100285.59
2023-03-19T18:12:15.352Z,100286.63
2023-03-19T18:14:06.907Z,100285.95
2023-03-19T18:15:59.199Z,100292.10
2023-03-19T18:17:54.767Z,100288.24
2023-03-19T18:19:47.795Z,100290.88
2023-03-19T18:21:39.814Z,100289.70
2023-03-19T18:23:31.459Z,100285.67
2023-03-19T18:25:25.845Z,100285.14
2023-03-19T18:27:17.838Z,100284.20
2023-03-19T18:29:09.482Z,100288.73
2023-03-19T18:31:01.481Z,100287.28
2023-03-19T18:32:57.198Z,100289.91
2023-03-19T18:34:48.828Z,100293.33
2023-03-19T18:36:41.404Z,100290.59
2023-03-19T18:38:32.852Z,100289.47
2023-03-19T18:40:28.167Z,100291.98
2023-03-19T18:42:19.747Z,100291.31
2023-03-19T18:44:12.385Z,100291.52
2023-03-19T18:46:05.871Z,100292.52
2023-03-19T18:47:58.012Z,100298.29
2023-03-19T18:49:50.091Z,100296.66
2023-03-19T18:51:58.807Z,100301.81
2023-03-19T18:53:53.548Z,100301.88
2023-03-19T18:55:45.322Z,100300.52
2023-03-19T18:57:38.657Z,100302.42
2023-03-19T18:59:33.008Z,100302.09
2023-03-19T19:01:25.793Z,100306.30
2023-03-19T19:03:18.826Z,100306.16
2023-03-19T19:05:16.598Z,100309.06
2023-03-19T19:07:11.486Z,100309.98
2023-03-19T19:09:03.605Z,100312.59
2023-03-19T19:10:57.350Z,100316.09
2023-03-19T19:12:52.563Z,100315.45
2023-03-19T19:14:44.885Z,100318.84
2023-03-19T19:16:38.350Z,100313.73
2023-03-19T19:18:31.848Z,100318.20
2023-03-19T19:20:26.007Z,100316.18
2023-03-19T19:22:19.005Z,100316.70
2023-03-19T19:24:10.793Z,100315.91
2023-03-19T19:26:02.699Z,100317.30
2023-03-19T19:28:02.167Z,100319.97
2023-03-19T19:29:54.247Z,100318.29
2023-03-19T19:31:45.930Z,100316.10
2023-03-19T19:33:37.367Z,100316.98
2023-03-19T19:35:29.302Z,100316.70
2023-03-19T19:37:23.526Z,100321.30
2023-03-19T19:39:15.713Z,100318.46
2023-03-19T19:41:12.571Z,100316.58
2023-03-19T19:43:04.433Z,100313.55
2023-03-19T19:44:59.096Z,100315.80
2023-03-19T19:46:53.419Z,100319.74
2023-03-19T19:48:45.222Z,100317.92
2023-03-19T19:50:37.347Z,100317.61
2023-03-19T19:52:31.875Z,100320.40
2023-03-19T19:54:25.196Z,100320.78
2023-03-19T19:56:23.434Z,100318.31
2023-03-19T19:58:21.009Z,100318.98
2023-03-19T20:00:28.687Z,100325.57
2023-03-19T20:02:22.413Z,100325.91
2023-03-19T20:04:14.994Z,100332.77
2023-03-19T20:06:06.475Z,100329.11
2023-03-19T20:08:00.692Z,100329.24
2023-03-19T20:09:52.294Z,100328.86
2023-03-19T20:11:45.968Z,100329.29
2023-03-19T20:13:38.387Z,100329.74
2023-03-19T20:15:36.033Z,100329.23
2023-03-19T20:17:28.260Z,100329.52
2023-03-19T20:19:20.302Z,100325.29
2023-03-19T20:21:13.146Z,100329.21
2023-03-19T20:23:04.589Z,100328.11
2023-03-19T20:24:56.410Z,100329.05
2023-03-19T20:26:48.105Z,100332.35
2023-03-19T20:28:41.142Z,100332.92
2023-03-19T20:30:37.285Z,100333.23
2023-03-19T20:32:33.677Z,100326.73
2023-03-19T20:34:38.833Z,100329.21
2023-03-19T20:36:30.950Z,100328.11
2023-03-19T20:38:22.696Z,100326.18
2023-03-19T20:40:14.826Z,100324.02
2023-03-19T20:42:12.892Z,100326.64
2023-03-19T20:44:05.725Z,100325.19
2023-03-19T20:45:58.493Z,100324.05
2023-03-19T20:47:54.371Z,100324.34
2023-03-19T20:49:47.093Z,100324.05
2023-03-19T20:51:38.725Z,100326.61
2023-03-19T20:53:30.643Z,100325.12
2023-03-19T20:55:24.635Z,100326.35
2023-03-19T20:57:22.604Z,100327.33
2023-03-19T20:59:14.271Z,100330.64
2023-03-19T21:01:05.998Z,100334.02
2023-03-19T21:02:59.390Z,100335.98
2023-03-19T21:04:51.866Z,100340.34
2023-03-19T21:06:52.940Z,100338.27
2023-03-19T21:09:21.489Z,100340.08
2023-03-19T21:11:21.198Z,100340.30
2023-03-19T21:13:23.907Z,100343.77
2023-03-19T21:16:18.565Z,100345.00
2023-03-19T21:18:38.641Z,100345.01
2023-03-19T21:20:44.350Z,100342.52
2023-03-19T21:22:39.673Z,100343.98
2023-03-19T21:25:22.819Z,100343.50
2023-03-19T21:27:25.471Z,100350.55
2023-03-19T21:31:21.423Z,100349.51
2023-03-19T21:33:40.950Z,100347.48
2023-03-19T21:36:20.797Z,100351.16
2023-03-19T21:38:41.497Z,100345.87
2023-03-19T21:41:03.952Z,100345.58
2023-03-19T21:43:22.718Z,100346.66
2023-03-19T21:45:26.506Z,100345.38
2023-03-19T21:47:21.571Z,100342.88
2023-03-19T21:49:58.079Z,100344.42
2023-03-19T21:51:59.518Z,100344.92
2023-03-19T21:54:15.776Z,100344.76
2023-03-19T21:56:41.931Z,100343.30
2023-03-19T21:58:36.156Z,100343.59
2023-03-19T22:04:04.647Z,100335.48
2023-03-19T22:05:57.014Z,100333.16
2023-03-19T22:07:48.879Z,100326.23
2023-03-19T22:09:40.619Z,100334.78
2023-03-19T22:11:37.472Z,100336.02
2023-03-19T22:13:34.136Z,100334.08
2023-03-19T22:15:31.107Z,100336.18